LEASLECO

Guest
Details From LEAS - Asturias
To LECO - A Coruna
Flight Number -
Tags generated
Created
Modified
Stats Distance 104 nm / 192 km
Max Altitude 5,600 ft / 1,707 m
Waypoints 3
Social Downloads 1
Likes 0
Share VATSIM

Download

Looking for another format? Having issues loading an existing format? Contact us
Advertisement - Login to hide

Notes

Basic altitude profile: - Ascent Rate: 2500ft/min - Ascent Speed: 250kts - Cruise Altitude: 35000ft - Cruise Speed: 420kts - Descent Rate: 1500ft/min - Descent Speed: 250kts Options: - Use NATs: yes - Use PACOTS: yes - Use low airways: yes - Use high airways: no

Route

LEAS LURIM LECO

ID Type Via Altitude Latitude Longitude Leg Dist Tot Dist Heading (true) Name
O LEAS APT - 0 ft / 0 m 43.56350˚ -6.03467˚ - 0 nm - Asturias
LURIM FIX - 5,600 ft / 1,707 m 43.47638˚ -6.37662˚ 15 nm 15 nm 251° / 251° -
O LECO APT - 0 ft / 0 m 43.30226˚ -8.37709˚ 87 nm 103 nm 264° / 262° A Coruna

Altitude Profile

Advertisement - Login to hide

LEAS

Details ICAO LEAS (OVD)
Name Asturias
Region Spain
Timezone Europe/Madrid (UTC+2.0)
Stats Elevation 416 ft / 127 m (AMSL)
Location 43.563496° -6.034670°
Runways 1
Magnetic Variation 1.570° W

METAR

LEAS 242200Z VRB01KT 2000 -RA BR FEW001 SCT004 BKN007 16/16 Q1016 TEMPO 4000

Decode

TAF

TAF LEAS 242000Z 2421/2521 08006KT 7000 SCT010 BKN050 TX17/2514Z TN14/2503Z TEMPO 2421/2509 3000 BR PROB40 TEMPO 2422/2508 0800 BCFG BKN005 PROB30 TEMPO 2421/2512 RA TEMPO 2512/2521 3000 RA SHRA BKN010 SCT030TCU PROB30 TEMPO 2514/2521 TS SCT030CB

Decode

Departure Runways

ID Width Length Bearing (true) Bearing (mag) Surface Threshold Offset Overrun Length
11 148 ft / 45 m 7,216 ft / 2,200 m 108.09° 109.66° Asphalt 0 ft / 0 m 164 ft / 50 m
29 148 ft / 45 m 7,216 ft / 2,200 m 288.10° 289.67° Asphalt 0 ft / 0 m 164 ft / 50 m

LECO

Details ICAO LECO (LCG)
Name A Coruna
Region Spain
Timezone Europe/Madrid (UTC+2.0)
Stats Elevation 323 ft / 98 m (AMSL)
Location 43.302264° -8.377086°
Runways 1
Magnetic Variation 2.332° W

METAR

LECO 242200Z 01006KT 320V100 CAVOK 17/13 Q1015 NOSIG

Decode

TAF

TAF LECO 242000Z 2421/2521 36006KT 9999 SCT020 TX19/2514Z TN14/2504Z PROB30 TEMPO 2500/2507 3000 BR PROB30 TEMPO 2509/2515 RA TEMPO 2515/2521 3000 RA SHRA SCT030TCU

Decode

Destination Runways

ID Width Length Bearing (true) Bearing (mag) Surface Threshold Offset Overrun Length
04 148 ft / 45 m 6,371 ft / 1,942 m 30.94° 33.27° Asphalt 0 ft / 0 m 194 ft / 59 m
22 148 ft / 45 m 6,371 ft / 1,942 m 210.94° 213.27° Asphalt 0 ft / 0 m 203 ft / 62 m

Approach Navaids

Runway Type Ident Frequency Range Bearing (true) Bearing (mag) Slope Elevation
22 Localiser LCO 109.90 MHz 18 nm / 33 km 210.89° 213.22° - 329 ft / 100 m (AMSL)
22 Glidescope LCO 109.90 MHz 10 nm / 19 km 210.94° 213.27° 3.00° 323 ft / 98 m (AMSL)
22 DME LCO 109.90 MHz 18 nm / 33 km - - - 293 ft / 89 m (AMSL)

Popular Alternatives